Wetterdaten: aktuell Sonntag, 14.07.2019 09:00
Datum Zeit Temp. I. Temp. A. Feuchte I. Feuchte A. Luftdruck Regen Wind Richtung Richtung Taupunkt Windchill
14.07.2019 09:00 24,8 C 14,8 C 33 % 74 % 1017 hPa 0,0 mm 10,4 km/h (2 Bft) NW 315 10,2 C 14,8 C
14.07.2019 08:00 24,8 C 14,6 C 34 % 72 % 1017 hPa 0,0 mm 9,7 km/h (2 Bft) N 360 9,6 C 14,6 C
14.07.2019 07:00 24,7 C 13,9 C 34 % 72 % 1016 hPa 0,0 mm 0,0 km/h (0 Bft) W-NW45 290 8,9 C 13,9 C
14.07.2019 06:00 24,7 C 13,8 C 34 % 73 % 1017 hPa 0,0 mm 3,6 km/h (1 Bft) NW 315 9,0 C 13,8 C
14.07.2019 05:00 24,7 C 14,0 C 35 % 74 % 1017 hPa 0,0 mm 2,5 km/h (1 Bft) NW 315 9,4 C 14,0 C
14.07.2019 04:00 24,7 C 14,6 C 35 % 78 % 1017 hPa 0,0 mm 4,7 km/h (1 Bft) N-NO45 20 10,8 C 14,6 C
14.07.2019 03:00 24,7 C 15,1 C 35 % 74 % 1017 hPa 0,0 mm 1,4 km/h (1 Bft) N-NO45 20 10,5 C 15,1 C
14.07.2019 02:00 24,8 C 15,3 C 36 % 74 % 1017 hPa 0,0 mm 1,1 km/h (1 Bft) NW 315 10,7 C 15,3 C
14.07.2019 01:00 24,8 C 15,4 C 36 % 76 % 1017 hPa 0,0 mm 1,1 km/h (1 Bft) W 270 11,2 C 15,4 C
14.07.2019 00:00 24,8 C 15,6 C 36 % 77 % 1017 hPa 0,0 mm 5,8 km/h (2 Bft) N-NW45 335 11,6 C 15,6 C
13.07.2019 23:00 24,8 C 16,6 C 34 % 72 % 1017 hPa 0,0 mm 9,7 km/h (2 Bft) N-NW45 335 11,5 C 16,6 C
13.07.2019 22:00 24,8 C 16,9 C 34 % 70 % 1017 hPa 0,0 mm 5,4 km/h (1 Bft) N-NW45 335 11,4 C 16,9 C
13.07.2019 21:00 25,1 C 19,8 C 35 % 62 % 1016 hPa 0,0 mm 7,2 km/h (2 Bft) W-NW45 290 12,3 C 19,8 C
13.07.2019 20:00 25,2 C 20,9 C 37 % 68 % 1015 hPa 0,0 mm 11,2 km/h (2 Bft) NW 315 14,8 C 20,9 C
13.07.2019 19:00 25,2 C 18,7 C 35 % 74 % 1015 hPa 0,5 mm 16,9 km/h (3 Bft) W-NW45 290 14,0 C 18,7 C
13.07.2019 18:00 25,2 C 21,9 C 34 % 60 % 1015 hPa 0,0 mm 4,0 km/h (1 Bft) NW 315 13,8 C 21,9 C
13.07.2019 17:00 25,2 C 21,5 C 34 % 60 % 1015 hPa 0,0 mm 11,2 km/h (2 Bft) W-SW45 245 13,4 C 21,5 C
13.07.2019 16:00 25,4 C 21,5 C 34 % 61 % 1015 hPa 0,0 mm 6,1 km/h (2 Bft) W 270 13,7 C 21,5 C
13.07.2019 15:00 25,5 C 21,6 C 34 % 60 % 1015 hPa 0,0 mm 4,0 km/h (1 Bft) N-NW45 335 13,5 C 21,6 C
13.07.2019 14:00 25,5 C 20,8 C 35 % 65 % 1015 hPa 0,0 mm 13,0 km/h (3 Bft) N-NW45 335 14,0 C 20,8 C
13.07.2019 13:00 25,5 C 19,5 C 35 % 70 % 1015 hPa 0,0 mm 5,4 km/h (1 Bft) W 270 13,9 C 19,5 C
13.07.2019 12:00 25,4 C 17,5 C 36 % 76 % 1015 hPa 0,0 mm 3,2 km/h (1 Bft) W 270 13,2 C 17,5 C
13.07.2019 11:00 24,9 C 17,3 C 36 % 76 % 1015 hPa 0,0 mm 11,2 km/h (2 Bft) NW 315 13,0 C 17,3 C
13.07.2019 10:00 24,7 C 16,9 C 37 % 78 % 1015 hPa 0,0 mm 17,3 km/h (3 Bft) W-NW45 290 13,0 C 16,9 C
_ Min-Zeit 10:00 06:00 09:00 15:00 10:00 - 07:00 - - 07:00 06:00
Minimum _ 24,7 C 13,8 C 33 % 60 % 1015 hPa - 0,0 km/h (0 Bft) - - 8,9 C 13,8 C
_ Max-Zeit 13:00 18:00 10:00 10:00 22:00 19:00 10:00 - - 20:00 18:00
Maximum _ 25,5 C 21,9 C 37 % 78 % 1017 hPa 0,5 mm 17,3 km/h
W-NW (3 Bft)
- - 14,8 C 21,9 C
Durchschnitt _ 25,0 C 17,4 C 35 % 71 % 1016 hPa #0,5 mm 7,3 km/h (2 Bft) NW - 12,0 C 17,4 C